sensor_id;sensor_type;location;lat;lon;timestamp;P1;durP1;ratioP1;P2;durP2;ratioP2
10471;SDS011;5283;48.876;8.962;2023-09-30T00:01:47;3.87;;;2.40;;
10471;SDS011;5283;48.876;8.962;2023-09-30T00:04:14;3.10;;;2.13;;
10471;SDS011;5283;48.876;8.962;2023-09-30T00:06:40;4.67;;;2.60;;
10471;SDS011;5283;48.876;8.962;2023-09-30T00:09:07;3.97;;;2.73;;
10471;SDS011;5283;48.876;8.962;2023-09-30T00:11:34;2.73;;;1.90;;
10471;SDS011;5283;48.876;8.962;2023-09-30T00:14:01;3.37;;;2.10;;
10471;SDS011;5283;48.876;8.962;2023-09-30T00:16:28;3.13;;;2.10;;
10471;SDS011;5283;48.876;8.962;2023-09-30T00:18:55;4.23;;;2.47;;
10471;SDS011;5283;48.876;8.962;2023-09-30T00:21:21;2.30;;;2.10;;
10471;SDS011;5283;48.876;8.962;2023-09-30T00:23:48;3.00;;;2.20;;
10471;SDS011;5283;48.876;8.962;2023-09-30T00:26:15;3.07;;;2.10;;
10471;SDS011;5283;48.876;8.962;2023-09-30T00:28:42;2.83;;;2.30;;
10471;SDS011;5283;48.876;8.962;2023-09-30T00:31:09;2.93;;;2.10;;
10471;SDS011;5283;48.876;8.962;2023-09-30T00:33:36;3.10;;;2.20;;
10471;SDS011;5283;48.876;8.962;2023-09-30T00:36:07;4.60;;;2.50;;
10471;SDS011;5283;48.876;8.962;2023-09-30T00:38:35;4.07;;;2.83;;
10471;SDS011;5283;48.876;8.962;2023-09-30T00:41:02;4.57;;;2.93;;
10471;SDS011;5283;48.876;8.962;2023-09-30T00:43:29;6.37;;;3.20;;
10471;SDS011;5283;48.876;8.962;2023-09-30T00:46:10;3.30;;;2.67;;
10471;SDS011;5283;48.876;8.962;2023-09-30T00:48:52;3.67;;;2.70;;
10471;SDS011;5283;48.876;8.962;2023-09-30T00:51:19;3.80;;;3.03;;
10471;SDS011;5283;48.876;8.962;2023-09-30T00:53:47;3.83;;;2.80;;
10471;SDS011;5283;48.876;8.962;2023-09-30T00:56:14;4.30;;;3.37;;
10471;SDS011;5283;48.876;8.962;2023-09-30T00:58:42;4.90;;;3.07;;
10471;SDS011;5283;48.876;8.962;2023-09-30T01:01:11;5.53;;;3.23;;
10471;SDS011;5283;48.876;8.962;2023-09-30T01:03:38;7.03;;;3.00;;
10471;SDS011;5283;48.876;8.962;2023-09-30T01:06:05;3.23;;;2.90;;
10471;SDS011;5283;48.876;8.962;2023-09-30T01:08:32;3.20;;;2.77;;
10471;SDS011;5283;48.876;8.962;2023-09-30T01:11:00;4.40;;;2.77;;
10471;SDS011;5283;48.876;8.962;2023-09-30T01:13:33;3.53;;;2.90;;
10471;SDS011;5283;48.876;8.962;2023-09-30T01:16:08;4.37;;;3.30;;
10471;SDS011;5283;48.876;8.962;2023-09-30T01:18:36;5.17;;;3.47;;
10471;SDS011;5283;48.876;8.962;2023-09-30T01:21:03;5.50;;;3.30;;
10471;SDS011;5283;48.876;8.962;2023-09-30T01:23:31;3.63;;;3.10;;
10471;SDS011;5283;48.876;8.962;2023-09-30T01:26:02;4.90;;;3.57;;
10471;SDS011;5283;48.876;8.962;2023-09-30T01:28:30;8.77;;;4.30;;
10471;SDS011;5283;48.876;8.962;2023-09-30T01:30:57;5.07;;;3.90;;
10471;SDS011;5283;48.876;8.962;2023-09-30T01:33:25;5.87;;;3.43;;
10471;SDS011;5283;48.876;8.962;2023-09-30T01:35:51;4.03;;;3.03;;
10471;SDS011;5283;48.876;8.962;2023-09-30T01:38:18;3.43;;;3.00;;
10471;SDS011;5283;48.876;8.962;2023-09-30T01:40:46;6.00;;;3.47;;
10471;SDS011;5283;48.876;8.962;2023-09-30T01:43:13;3.07;;;2.77;;
10471;SDS011;5283;48.876;8.962;2023-09-30T01:45:41;4.33;;;3.30;;
10471;SDS011;5283;48.876;8.962;2023-09-30T01:48:09;5.37;;;3.10;;
10471;SDS011;5283;48.876;8.962;2023-09-30T01:50:40;4.47;;;3.30;;
10471;SDS011;5283;48.876;8.962;2023-09-30T01:53:06;5.67;;;3.53;;
10471;SDS011;5283;48.876;8.962;2023-09-30T01:55:33;4.50;;;3.07;;
10471;SDS011;5283;48.876;8.962;2023-09-30T01:58:01;4.27;;;3.10;;
10471;SDS011;5283;48.876;8.962;2023-09-30T02:00:28;3.50;;;3.00;;
10471;SDS011;5283;48.876;8.962;2023-09-30T02:02:55;5.30;;;3.07;;
10471;SDS011;5283;48.876;8.962;2023-09-30T02:05:22;5.67;;;3.43;;
10471;SDS011;5283;48.876;8.962;2023-09-30T02:07:49;4.83;;;3.80;;
10471;SDS011;5283;48.876;8.962;2023-09-30T02:10:17;3.93;;;3.53;;
10471;SDS011;5283;48.876;8.962;2023-09-30T02:12:47;5.60;;;3.67;;
10471;SDS011;5283;48.876;8.962;2023-09-30T02:15:14;5.47;;;3.57;;
10471;SDS011;5283;48.876;8.962;2023-09-30T02:17:41;4.67;;;3.70;;
10471;SDS011;5283;48.876;8.962;2023-09-30T02:20:12;4.67;;;3.57;;
10471;SDS011;5283;48.876;8.962;2023-09-30T02:22:42;6.50;;;3.87;;
10471;SDS011;5283;48.876;8.962;2023-09-30T02:25:10;4.80;;;4.00;;
10471;SDS011;5283;48.876;8.962;2023-09-30T02:27:39;5.23;;;4.13;;
10471;SDS011;5283;48.876;8.962;2023-09-30T02:30:10;4.97;;;3.50;;
10471;SDS011;5283;48.876;8.962;2023-09-30T02:32:42;5.53;;;3.73;;
10471;SDS011;5283;48.876;8.962;2023-09-30T02:35:09;5.53;;;4.10;;
10471;SDS011;5283;48.876;8.962;2023-09-30T02:37:40;3.77;;;3.47;;
10471;SDS011;5283;48.876;8.962;2023-09-30T02:40:07;4.83;;;3.63;;
10471;SDS011;5283;48.876;8.962;2023-09-30T02:42:38;4.67;;;3.57;;
10471;SDS011;5283;48.876;8.962;2023-09-30T02:45:06;5.40;;;3.80;;
10471;SDS011;5283;48.876;8.962;2023-09-30T02:47:34;6.80;;;4.10;;
10471;SDS011;5283;48.876;8.962;2023-09-30T02:50:01;3.80;;;3.40;;
10471;SDS011;5283;48.876;8.962;2023-09-30T02:52:30;5.30;;;3.80;;
10471;SDS011;5283;48.876;8.962;2023-09-30T02:55:00;4.90;;;3.90;;
10471;SDS011;5283;48.876;8.962;2023-09-30T02:57:27;4.90;;;3.93;;
10471;SDS011;5283;48.876;8.962;2023-09-30T02:59:54;5.80;;;4.80;;
10471;SDS011;5283;48.876;8.962;2023-09-30T03:02:20;6.23;;;4.37;;
10471;SDS011;5283;48.876;8.962;2023-09-30T03:04:47;7.40;;;4.70;;
10471;SDS011;5283;48.876;8.962;2023-09-30T03:07:18;4.47;;;3.60;;
10471;SDS011;5283;48.876;8.962;2023-09-30T03:09:47;6.70;;;4.20;;
10471;SDS011;5283;48.876;8.962;2023-09-30T03:12:14;6.03;;;4.40;;
10471;SDS011;5283;48.876;8.962;2023-09-30T03:14:40;5.40;;;3.80;;
10471;SDS011;5283;48.876;8.962;2023-09-30T03:17:08;4.80;;;3.37;;
10471;SDS011;5283;48.876;8.962;2023-09-30T03:19:38;4.63;;;3.23;;
10471;SDS011;5283;48.876;8.962;2023-09-30T03:22:05;3.97;;;3.27;;
10471;SDS011;5283;48.876;8.962;2023-09-30T03:24:32;5.30;;;3.17;;
10471;SDS011;5283;48.876;8.962;2023-09-30T03:26:58;5.13;;;3.00;;
10471;SDS011;5283;48.876;8.962;2023-09-30T03:29:25;3.57;;;2.93;;
10471;SDS011;5283;48.876;8.962;2023-09-30T03:31:52;3.40;;;3.10;;
10471;SDS011;5283;48.876;8.962;2023-09-30T03:34:19;4.90;;;3.27;;
10471;SDS011;5283;48.876;8.962;2023-09-30T03:36:46;4.57;;;3.87;;
10471;SDS011;5283;48.876;8.962;2023-09-30T03:39:13;4.97;;;3.60;;
10471;SDS011;5283;48.876;8.962;2023-09-30T03:41:41;4.77;;;3.53;;
10471;SDS011;5283;48.876;8.962;2023-09-30T03:44:08;3.70;;;3.20;;
10471;SDS011;5283;48.876;8.962;2023-09-30T03:46:35;5.00;;;3.03;;
10471;SDS011;5283;48.876;8.962;2023-09-30T03:49:02;4.50;;;3.40;;
10471;SDS011;5283;48.876;8.962;2023-09-30T03:51:29;4.33;;;3.27;;
10471;SDS011;5283;48.876;8.962;2023-09-30T03:53:55;6.47;;;3.73;;
10471;SDS011;5283;48.876;8.962;2023-09-30T03:56:22;3.80;;;3.50;;
10471;SDS011;5283;48.876;8.962;2023-09-30T03:58:49;4.67;;;3.30;;
10471;SDS011;5283;48.876;8.962;2023-09-30T04:01:15;6.77;;;3.30;;
10471;SDS011;5283;48.876;8.962;2023-09-30T04:03:49;5.23;;;3.37;;
10471;SDS011;5283;48.876;8.962;2023-09-30T04:06:16;4.83;;;3.77;;
10471;SDS011;5283;48.876;8.962;2023-09-30T04:08:43;4.40;;;3.40;;
10471;SDS011;5283;48.876;8.962;2023-09-30T04:11:10;5.30;;;3.87;;
10471;SDS011;5283;48.876;8.962;2023-09-30T04:13:42;4.07;;;3.40;;
10471;SDS011;5283;48.876;8.962;2023-09-30T04:16:10;4.53;;;3.30;;
10471;SDS011;5283;48.876;8.962;2023-09-30T04:18:37;5.20;;;3.43;;
10471;SDS011;5283;48.876;8.962;2023-09-30T04:21:07;4.77;;;3.60;;
10471;SDS011;5283;48.876;8.962;2023-09-30T04:23:34;4.10;;;3.00;;
10471;SDS011;5283;48.876;8.962;2023-09-30T04:26:02;4.20;;;3.40;;
10471;SDS011;5283;48.876;8.962;2023-09-30T04:28:30;9.07;;;3.70;;
10471;SDS011;5283;48.876;8.962;2023-09-30T04:30:57;5.03;;;4.00;;
10471;SDS011;5283;48.876;8.962;2023-09-30T04:33:24;6.23;;;3.73;;
10471;SDS011;5283;48.876;8.962;2023-09-30T04:35:51;5.70;;;3.80;;
10471;SDS011;5283;48.876;8.962;2023-09-30T04:38:18;5.60;;;3.87;;
10471;SDS011;5283;48.876;8.962;2023-09-30T04:40:44;5.33;;;4.10;;
10471;SDS011;5283;48.876;8.962;2023-09-30T04:43:14;5.50;;;4.00;;
10471;SDS011;5283;48.876;8.962;2023-09-30T04:45:41;5.93;;;3.70;;
10471;SDS011;5283;48.876;8.962;2023-09-30T04:48:07;5.70;;;4.07;;
10471;SDS011;5283;48.876;8.962;2023-09-30T04:50:34;4.73;;;3.33;;
10471;SDS011;5283;48.876;8.962;2023-09-30T04:53:01;5.00;;;3.60;;
10471;SDS011;5283;48.876;8.962;2023-09-30T04:55:28;5.23;;;3.93;;
10471;SDS011;5283;48.876;8.962;2023-09-30T04:57:55;5.33;;;3.60;;
10471;SDS011;5283;48.876;8.962;2023-09-30T05:00:22;4.87;;;3.40;;
10471;SDS011;5283;48.876;8.962;2023-09-30T05:02:51;4.33;;;3.60;;
10471;SDS011;5283;48.876;8.962;2023-09-30T05:05:21;4.97;;;3.63;;
10471;SDS011;5283;48.876;8.962;2023-09-30T05:07:48;4.37;;;3.80;;
10471;SDS011;5283;48.876;8.962;2023-09-30T05:10:15;5.60;;;3.77;;
10471;SDS011;5283;48.876;8.962;2023-09-30T05:12:43;5.50;;;3.70;;
10471;SDS011;5283;48.876;8.962;2023-09-30T05:15:12;6.23;;;3.97;;
10471;SDS011;5283;48.876;8.962;2023-09-30T05:17:42;5.07;;;3.97;;
10471;SDS011;5283;48.876;8.962;2023-09-30T05:20:12;4.40;;;3.87;;
10471;SDS011;5283;48.876;8.962;2023-09-30T05:22:39;5.53;;;4.10;;
10471;SDS011;5283;48.876;8.962;2023-09-30T05:25:15;4.50;;;3.87;;
10471;SDS011;5283;48.876;8.962;2023-09-30T05:27:45;4.73;;;3.60;;
10471;SDS011;5283;48.876;8.962;2023-09-30T05:30:14;4.37;;;3.77;;
10471;SDS011;5283;48.876;8.962;2023-09-30T05:32:42;3.83;;;3.53;;
10471;SDS011;5283;48.876;8.962;2023-09-30T05:35:08;3.90;;;3.50;;
10471;SDS011;5283;48.876;8.962;2023-09-30T05:37:39;5.87;;;3.90;;
10471;SDS011;5283;48.876;8.962;2023-09-30T05:40:06;4.60;;;4.10;;
10471;SDS011;5283;48.876;8.962;2023-09-30T05:42:44;5.27;;;4.20;;
10471;SDS011;5283;48.876;8.962;2023-09-30T05:45:11;4.43;;;3.97;;
10471;SDS011;5283;48.876;8.962;2023-09-30T05:47:41;4.53;;;3.97;;
10471;SDS011;5283;48.876;8.962;2023-09-30T05:50:08;4.63;;;4.17;;
10471;SDS011;5283;48.876;8.962;2023-09-30T05:52:35;6.43;;;4.60;;
10471;SDS011;5283;48.876;8.962;2023-09-30T05:55:03;6.23;;;4.40;;
10471;SDS011;5283;48.876;8.962;2023-09-30T05:57:30;8.23;;;4.73;;
10471;SDS011;5283;48.876;8.962;2023-09-30T05:59:57;6.93;;;4.40;;
10471;SDS011;5283;48.876;8.962;2023-09-30T06:02:24;6.33;;;4.70;;
10471;SDS011;5283;48.876;8.962;2023-09-30T06:04:51;6.90;;;4.30;;
10471;SDS011;5283;48.876;8.962;2023-09-30T06:07:19;8.57;;;4.97;;
10471;SDS011;5283;48.876;8.962;2023-09-30T06:09:46;11.03;;;5.60;;
10471;SDS011;5283;48.876;8.962;2023-09-30T06:12:16;5.90;;;4.93;;
10471;SDS011;5283;48.876;8.962;2023-09-30T06:14:42;6.33;;;4.73;;
10471;SDS011;5283;48.876;8.962;2023-09-30T06:17:10;7.47;;;5.03;;
10471;SDS011;5283;48.876;8.962;2023-09-30T06:19:36;6.97;;;5.00;;
10471;SDS011;5283;48.876;8.962;2023-09-30T06:22:03;5.50;;;4.40;;
10471;SDS011;5283;48.876;8.962;2023-09-30T06:24:30;6.47;;;4.40;;
10471;SDS011;5283;48.876;8.962;2023-09-30T06:26:57;7.57;;;3.93;;
10471;SDS011;5283;48.876;8.962;2023-09-30T06:29:24;4.17;;;3.77;;
10471;SDS011;5283;48.876;8.962;2023-09-30T06:31:51;4.03;;;3.67;;
10471;SDS011;5283;48.876;8.962;2023-09-30T06:34:17;3.83;;;3.47;;
10471;SDS011;5283;48.876;8.962;2023-09-30T06:36:44;5.27;;;3.70;;
10471;SDS011;5283;48.876;8.962;2023-09-30T06:39:11;5.10;;;3.70;;
10471;SDS011;5283;48.876;8.962;2023-09-30T06:41:38;3.40;;;3.10;;
10471;SDS011;5283;48.876;8.962;2023-09-30T06:44:05;4.17;;;3.03;;
10471;SDS011;5283;48.876;8.962;2023-09-30T06:46:32;4.77;;;3.17;;
10471;SDS011;5283;48.876;8.962;2023-09-30T06:48:58;6.43;;;3.13;;
10471;SDS011;5283;48.876;8.962;2023-09-30T06:51:25;3.30;;;2.80;;
10471;SDS011;5283;48.876;8.962;2023-09-30T06:53:53;2.97;;;2.50;;
10471;SDS011;5283;48.876;8.962;2023-09-30T06:56:19;3.53;;;2.80;;
10471;SDS011;5283;48.876;8.962;2023-09-30T06:58:46;4.17;;;3.00;;
10471;SDS011;5283;48.876;8.962;2023-09-30T07:01:15;4.13;;;2.77;;
10471;SDS011;5283;48.876;8.962;2023-09-30T07:03:45;4.93;;;2.93;;
10471;SDS011;5283;48.876;8.962;2023-09-30T07:06:12;3.90;;;2.90;;
10471;SDS011;5283;48.876;8.962;2023-09-30T07:08:38;2.80;;;2.50;;
10471;SDS011;5283;48.876;8.962;2023-09-30T07:11:05;3.43;;;2.80;;
10471;SDS011;5283;48.876;8.962;2023-09-30T07:13:31;3.60;;;3.00;;
10471;SDS011;5283;48.876;8.962;2023-09-30T07:15:58;3.93;;;2.70;;
10471;SDS011;5283;48.876;8.962;2023-09-30T07:18:25;6.33;;;3.40;;
10471;SDS011;5283;48.876;8.962;2023-09-30T07:20:52;4.00;;;2.97;;
10471;SDS011;5283;48.876;8.962;2023-09-30T07:23:19;5.73;;;3.40;;
10471;SDS011;5283;48.876;8.962;2023-09-30T07:25:47;3.90;;;3.10;;
10471;SDS011;5283;48.876;8.962;2023-09-30T07:28:14;6.03;;;4.10;;
10471;SDS011;5283;48.876;8.962;2023-09-30T07:30:40;7.53;;;3.83;;
10471;SDS011;5283;48.876;8.962;2023-09-30T07:33:08;6.10;;;4.00;;
10471;SDS011;5283;48.876;8.962;2023-09-30T07:35:34;4.20;;;3.80;;
10471;SDS011;5283;48.876;8.962;2023-09-30T07:38:01;6.73;;;5.00;;
10471;SDS011;5283;48.876;8.962;2023-09-30T07:40:30;7.47;;;5.73;;
10471;SDS011;5283;48.876;8.962;2023-09-30T07:42:57;7.70;;;5.50;;
10471;SDS011;5283;48.876;8.962;2023-09-30T07:45:24;6.50;;;4.87;;
10471;SDS011;5283;48.876;8.962;2023-09-30T07:47:50;8.30;;;6.23;;
10471;SDS011;5283;48.876;8.962;2023-09-30T07:50:17;8.30;;;6.00;;
10471;SDS011;5283;48.876;8.962;2023-09-30T07:52:44;7.37;;;5.47;;
10471;SDS011;5283;48.876;8.962;2023-09-30T07:55:12;5.80;;;5.20;;
10471;SDS011;5283;48.876;8.962;2023-09-30T07:57:39;9.73;;;5.17;;
10471;SDS011;5283;48.876;8.962;2023-09-30T08:00:09;7.90;;;5.30;;
10471;SDS011;5283;48.876;8.962;2023-09-30T08:02:41;6.67;;;4.50;;
10471;SDS011;5283;48.876;8.962;2023-09-30T08:05:08;7.60;;;5.00;;
10471;SDS011;5283;48.876;8.962;2023-09-30T08:07:36;6.07;;;4.50;;
10471;SDS011;5283;48.876;8.962;2023-09-30T08:10:03;8.23;;;4.40;;
10471;SDS011;5283;48.876;8.962;2023-09-30T08:12:31;7.27;;;4.60;;
10471;SDS011;5283;48.876;8.962;2023-09-30T08:14:58;7.47;;;4.73;;
10471;SDS011;5283;48.876;8.962;2023-09-30T08:17:25;7.17;;;4.47;;
10471;SDS011;5283;48.876;8.962;2023-09-30T08:19:52;6.90;;;4.10;;
10471;SDS011;5283;48.876;8.962;2023-09-30T08:22:18;6.70;;;4.07;;
10471;SDS011;5283;48.876;8.962;2023-09-30T08:24:45;5.00;;;3.80;;
10471;SDS011;5283;48.876;8.962;2023-09-30T08:27:12;5.83;;;4.07;;
10471;SDS011;5283;48.876;8.962;2023-09-30T08:29:40;6.53;;;3.10;;
10471;SDS011;5283;48.876;8.962;2023-09-30T08:32:06;6.00;;;3.50;;
10471;SDS011;5283;48.876;8.962;2023-09-30T08:34:33;4.20;;;3.50;;
10471;SDS011;5283;48.876;8.962;2023-09-30T08:37:00;4.13;;;3.20;;
10471;SDS011;5283;48.876;8.962;2023-09-30T08:39:27;8.23;;;3.67;;
10471;SDS011;5283;48.876;8.962;2023-09-30T08:41:54;5.90;;;3.40;;
10471;SDS011;5283;48.876;8.962;2023-09-30T08:44:22;5.93;;;3.70;;
10471;SDS011;5283;48.876;8.962;2023-09-30T08:46:49;5.60;;;3.70;;
10471;SDS011;5283;48.876;8.962;2023-09-30T08:49:16;7.43;;;3.90;;
10471;SDS011;5283;48.876;8.962;2023-09-30T08:51:45;5.83;;;3.27;;
10471;SDS011;5283;48.876;8.962;2023-09-30T08:54:15;4.97;;;3.63;;
10471;SDS011;5283;48.876;8.962;2023-09-30T08:56:41;4.70;;;3.53;;
10471;SDS011;5283;48.876;8.962;2023-09-30T08:59:13;5.93;;;3.50;;
10471;SDS011;5283;48.876;8.962;2023-09-30T09:01:41;4.40;;;2.97;;
10471;SDS011;5283;48.876;8.962;2023-09-30T09:04:08;4.00;;;3.23;;
10471;SDS011;5283;48.876;8.962;2023-09-30T09:06:34;7.00;;;3.03;;
10471;SDS011;5283;48.876;8.962;2023-09-30T09:09:14;5.73;;;3.40;;
10471;SDS011;5283;48.876;8.962;2023-09-30T09:11:43;6.80;;;3.20;;
10471;SDS011;5283;48.876;8.962;2023-09-30T09:14:10;3.40;;;3.00;;
10471;SDS011;5283;48.876;8.962;2023-09-30T09:16:37;3.67;;;3.03;;
10471;SDS011;5283;48.876;8.962;2023-09-30T09:19:23;4.73;;;3.53;;
10471;SDS011;5283;48.876;8.962;2023-09-30T09:21:56;4.97;;;3.03;;
10471;SDS011;5283;48.876;8.962;2023-09-30T09:24:31;6.20;;;3.27;;
10471;SDS011;5283;48.876;8.962;2023-09-30T09:27:08;6.37;;;3.30;;
10471;SDS011;5283;48.876;8.962;2023-09-30T09:29:38;3.63;;;3.00;;
10471;SDS011;5283;48.876;8.962;2023-09-30T09:32:13;4.77;;;3.00;;
10471;SDS011;5283;48.876;8.962;2023-09-30T09:34:42;3.93;;;2.83;;
10471;SDS011;5283;48.876;8.962;2023-09-30T09:37:14;7.03;;;3.10;;
10471;SDS011;5283;48.876;8.962;2023-09-30T09:39:48;5.37;;;3.27;;
10471;SDS011;5283;48.876;8.962;2023-09-30T09:42:23;4.73;;;2.80;;
10471;SDS011;5283;48.876;8.962;2023-09-30T09:44:55;3.87;;;2.80;;
10471;SDS011;5283;48.876;8.962;2023-09-30T09:47:24;5.70;;;3.17;;
10471;SDS011;5283;48.876;8.962;2023-09-30T09:49:51;3.97;;;3.10;;
10471;SDS011;5283;48.876;8.962;2023-09-30T09:52:19;4.20;;;2.57;;
10471;SDS011;5283;48.876;8.962;2023-09-30T09:54:46;3.73;;;2.60;;
10471;SDS011;5283;48.876;8.962;2023-09-30T09:57:14;4.60;;;2.50;;
10471;SDS011;5283;48.876;8.962;2023-09-30T09:59:44;3.80;;;2.70;;
10471;SDS011;5283;48.876;8.962;2023-09-30T10:02:14;7.20;;;3.13;;
10471;SDS011;5283;48.876;8.962;2023-09-30T10:04:45;3.50;;;2.73;;
10471;SDS011;5283;48.876;8.962;2023-09-30T10:07:20;5.23;;;2.97;;
10471;SDS011;5283;48.876;8.962;2023-09-30T10:09:51;4.77;;;2.93;;
10471;SDS011;5283;48.876;8.962;2023-09-30T10:12:19;6.63;;;2.90;;
10471;SDS011;5283;48.876;8.962;2023-09-30T10:14:47;5.80;;;2.90;;
10471;SDS011;5283;48.876;8.962;2023-09-30T10:17:14;4.87;;;2.83;;
10471;SDS011;5283;48.876;8.962;2023-09-30T10:22:33;4.87;;;3.07;;
10471;SDS011;5283;48.876;8.962;2023-09-30T10:25:02;4.77;;;2.90;;
10471;SDS011;5283;48.876;8.962;2023-09-30T10:28:00;4.27;;;3.07;;
10471;SDS011;5283;48.876;8.962;2023-09-30T10:31:19;4.67;;;3.03;;
10471;SDS011;5283;48.876;8.962;2023-09-30T10:36:33;3.83;;;2.87;;
10471;SDS011;5283;48.876;8.962;2023-09-30T10:39:02;5.00;;;2.90;;
10471;SDS011;5283;48.876;8.962;2023-09-30T10:46:54;5.10;;;3.20;;
10471;SDS011;5283;48.876;8.962;2023-09-30T10:51:57;8.33;;;3.50;;
10471;SDS011;5283;48.876;8.962;2023-09-30T10:54:28;7.17;;;3.37;;
10471;SDS011;5283;48.876;8.962;2023-09-30T10:56:59;4.70;;;3.10;;
10471;SDS011;5283;48.876;8.962;2023-09-30T10:59:27;6.17;;;3.00;;
10471;SDS011;5283;48.876;8.962;2023-09-30T11:01:58;5.70;;;3.20;;
10471;SDS011;5283;48.876;8.962;2023-09-30T11:04:25;4.90;;;3.00;;
10471;SDS011;5283;48.876;8.962;2023-09-30T11:06:54;4.57;;;3.30;;
10471;SDS011;5283;48.876;8.962;2023-09-30T11:09:22;5.90;;;3.53;;
10471;SDS011;5283;48.876;8.962;2023-09-30T11:11:50;5.10;;;3.67;;
10471;SDS011;5283;48.876;8.962;2023-09-30T11:14:28;4.37;;;2.87;;
10471;SDS011;5283;48.876;8.962;2023-09-30T11:17:00;5.03;;;3.27;;
10471;SDS011;5283;48.876;8.962;2023-09-30T11:19:36;4.50;;;3.20;;
10471;SDS011;5283;48.876;8.962;2023-09-30T11:22:12;6.30;;;3.63;;
10471;SDS011;5283;48.876;8.962;2023-09-30T11:24:40;5.27;;;3.40;;
10471;SDS011;5283;48.876;8.962;2023-09-30T11:27:07;6.23;;;3.77;;
10471;SDS011;5283;48.876;8.962;2023-09-30T11:29:35;6.20;;;3.43;;
10471;SDS011;5283;48.876;8.962;2023-09-30T11:32:02;4.67;;;3.10;;
10471;SDS011;5283;48.876;8.962;2023-09-30T11:34:36;5.57;;;3.53;;
10471;SDS011;5283;48.876;8.962;2023-09-30T11:37:03;6.07;;;3.60;;
10471;SDS011;5283;48.876;8.962;2023-09-30T11:39:31;5.53;;;3.70;;
10471;SDS011;5283;48.876;8.962;2023-09-30T11:41:59;6.80;;;3.47;;
10471;SDS011;5283;48.876;8.962;2023-09-30T11:44:27;7.57;;;4.03;;
10471;SDS011;5283;48.876;8.962;2023-09-30T11:46:58;5.93;;;3.90;;
10471;SDS011;5283;48.876;8.962;2023-09-30T11:49:30;6.87;;;3.97;;
10471;SDS011;5283;48.876;8.962;2023-09-30T11:52:03;6.10;;;3.97;;
10471;SDS011;5283;48.876;8.962;2023-09-30T11:54:31;6.93;;;4.10;;
10471;SDS011;5283;48.876;8.962;2023-09-30T11:57:10;5.67;;;3.47;;
10471;SDS011;5283;48.876;8.962;2023-09-30T11:59:38;7.97;;;3.97;;
10471;SDS011;5283;48.876;8.962;2023-09-30T12:02:07;7.37;;;3.77;;
10471;SDS011;5283;48.876;8.962;2023-09-30T12:04:39;6.40;;;3.53;;
10471;SDS011;5283;48.876;8.962;2023-09-30T12:07:06;7.20;;;4.37;;
10471;SDS011;5283;48.876;8.962;2023-09-30T12:09:35;5.87;;;3.87;;
10471;SDS011;5283;48.876;8.962;2023-09-30T12:12:06;7.43;;;3.83;;
10471;SDS011;5283;48.876;8.962;2023-09-30T12:14:35;5.30;;;3.73;;
10471;SDS011;5283;48.876;8.962;2023-09-30T12:17:02;5.50;;;3.70;;
10471;SDS011;5283;48.876;8.962;2023-09-30T12:19:29;6.90;;;4.37;;
10471;SDS011;5283;48.876;8.962;2023-09-30T12:21:55;7.23;;;4.00;;
10471;SDS011;5283;48.876;8.962;2023-09-30T12:24:22;7.17;;;4.17;;
10471;SDS011;5283;48.876;8.962;2023-09-30T12:26:50;5.73;;;3.70;;
10471;SDS011;5283;48.876;8.962;2023-09-30T12:29:18;5.03;;;3.60;;
10471;SDS011;5283;48.876;8.962;2023-09-30T12:31:46;5.87;;;3.73;;
10471;SDS011;5283;48.876;8.962;2023-09-30T12:34:16;6.40;;;3.90;;
10471;SDS011;5283;48.876;8.962;2023-09-30T12:36:44;6.00;;;3.57;;
10471;SDS011;5283;48.876;8.962;2023-09-30T12:39:11;7.10;;;3.97;;
10471;SDS011;5283;48.876;8.962;2023-09-30T12:41:38;6.77;;;4.00;;
10471;SDS011;5283;48.876;8.962;2023-09-30T12:44:09;6.83;;;3.93;;
10471;SDS011;5283;48.876;8.962;2023-09-30T12:46:36;6.33;;;4.23;;
10471;SDS011;5283;48.876;8.962;2023-09-30T12:49:05;6.33;;;3.63;;
10471;SDS011;5283;48.876;8.962;2023-09-30T12:51:33;8.50;;;4.40;;
10471;SDS011;5283;48.876;8.962;2023-09-30T12:54:00;6.17;;;3.77;;
10471;SDS011;5283;48.876;8.962;2023-09-30T12:56:27;6.57;;;4.07;;
10471;SDS011;5283;48.876;8.962;2023-09-30T12:58:55;5.20;;;3.90;;
10471;SDS011;5283;48.876;8.962;2023-09-30T13:01:23;6.40;;;4.17;;
10471;SDS011;5283;48.876;8.962;2023-09-30T13:03:50;6.60;;;4.10;;
10471;SDS011;5283;48.876;8.962;2023-09-30T13:06:18;5.63;;;3.83;;
10471;SDS011;5283;48.876;8.962;2023-09-30T13:08:46;6.53;;;3.77;;
10471;SDS011;5283;48.876;8.962;2023-09-30T13:11:13;5.10;;;3.60;;
10471;SDS011;5283;48.876;8.962;2023-09-30T13:13:40;7.33;;;3.97;;
10471;SDS011;5283;48.876;8.962;2023-09-30T13:16:09;6.47;;;4.00;;
10471;SDS011;5283;48.876;8.962;2023-09-30T13:18:37;6.53;;;3.60;;
10471;SDS011;5283;48.876;8.962;2023-09-30T13:21:04;5.87;;;4.03;;
10471;SDS011;5283;48.876;8.962;2023-09-30T13:23:32;7.13;;;4.10;;
10471;SDS011;5283;48.876;8.962;2023-09-30T13:25:59;6.00;;;3.60;;
10471;SDS011;5283;48.876;8.962;2023-09-30T13:28:26;6.80;;;3.83;;
10471;SDS011;5283;48.876;8.962;2023-09-30T13:30:54;6.13;;;4.00;;
10471;SDS011;5283;48.876;8.962;2023-09-30T13:33:21;7.10;;;3.80;;
10471;SDS011;5283;48.876;8.962;2023-09-30T13:35:47;6.27;;;3.80;;
10471;SDS011;5283;48.876;8.962;2023-09-30T13:38:14;6.23;;;3.83;;
10471;SDS011;5283;48.876;8.962;2023-09-30T13:40:42;7.37;;;4.10;;
10471;SDS011;5283;48.876;8.962;2023-09-30T13:43:09;6.23;;;3.60;;
10471;SDS011;5283;48.876;8.962;2023-09-30T13:45:36;6.80;;;3.47;;
10471;SDS011;5283;48.876;8.962;2023-09-30T13:48:03;5.73;;;3.87;;
10471;SDS011;5283;48.876;8.962;2023-09-30T13:50:31;5.83;;;3.87;;
10471;SDS011;5283;48.876;8.962;2023-09-30T13:52:57;6.97;;;4.00;;
10471;SDS011;5283;48.876;8.962;2023-09-30T13:55:27;5.77;;;3.70;;
10471;SDS011;5283;48.876;8.962;2023-09-30T13:57:54;5.87;;;3.73;;
10471;SDS011;5283;48.876;8.962;2023-09-30T14:00:20;6.03;;;3.87;;
10471;SDS011;5283;48.876;8.962;2023-09-30T14:02:47;6.37;;;3.87;;
10471;SDS011;5283;48.876;8.962;2023-09-30T14:05:14;5.83;;;3.90;;
10471;SDS011;5283;48.876;8.962;2023-09-30T14:07:41;6.13;;;3.70;;
10471;SDS011;5283;48.876;8.962;2023-09-30T14:10:09;5.50;;;3.77;;
10471;SDS011;5283;48.876;8.962;2023-09-30T14:12:39;8.87;;;3.97;;
10471;SDS011;5283;48.876;8.962;2023-09-30T14:15:06;6.33;;;3.90;;
10471;SDS011;5283;48.876;8.962;2023-09-30T14:17:33;6.93;;;3.93;;
10471;SDS011;5283;48.876;8.962;2023-09-30T14:20:01;6.87;;;4.10;;
10471;SDS011;5283;48.876;8.962;2023-09-30T14:22:28;6.80;;;3.87;;
10471;SDS011;5283;48.876;8.962;2023-09-30T14:24:55;6.17;;;4.27;;
10471;SDS011;5283;48.876;8.962;2023-09-30T14:27:22;5.57;;;3.73;;
10471;SDS011;5283;48.876;8.962;2023-09-30T14:29:49;7.03;;;4.03;;
10471;SDS011;5283;48.876;8.962;2023-09-30T14:32:15;6.17;;;3.30;;
10471;SDS011;5283;48.876;8.962;2023-09-30T14:34:42;6.67;;;3.67;;
10471;SDS011;5283;48.876;8.962;2023-09-30T14:37:09;6.30;;;4.10;;
10471;SDS011;5283;48.876;8.962;2023-09-30T14:39:36;5.97;;;3.60;;
10471;SDS011;5283;48.876;8.962;2023-09-30T14:42:02;5.27;;;3.40;;
10471;SDS011;5283;48.876;8.962;2023-09-30T14:44:29;7.30;;;4.53;;
10471;SDS011;5283;48.876;8.962;2023-09-30T14:46:56;5.60;;;3.93;;
10471;SDS011;5283;48.876;8.962;2023-09-30T14:49:23;6.90;;;3.47;;
10471;SDS011;5283;48.876;8.962;2023-09-30T14:51:50;6.23;;;3.43;;
10471;SDS011;5283;48.876;8.962;2023-09-30T14:54:17;5.07;;;3.67;;
10471;SDS011;5283;48.876;8.962;2023-09-30T14:56:43;6.73;;;3.87;;
10471;SDS011;5283;48.876;8.962;2023-09-30T14:59:12;6.40;;;3.70;;
10471;SDS011;5283;48.876;8.962;2023-09-30T15:01:39;7.00;;;3.60;;
10471;SDS011;5283;48.876;8.962;2023-09-30T15:04:05;6.00;;;3.97;;
10471;SDS011;5283;48.876;8.962;2023-09-30T15:06:35;6.90;;;3.90;;
10471;SDS011;5283;48.876;8.962;2023-09-30T15:09:02;7.77;;;4.20;;
10471;SDS011;5283;48.876;8.962;2023-09-30T15:11:30;6.97;;;4.03;;
10471;SDS011;5283;48.876;8.962;2023-09-30T15:13:57;6.77;;;4.20;;
10471;SDS011;5283;48.876;8.962;2023-09-30T15:16:23;5.77;;;3.70;;
10471;SDS011;5283;48.876;8.962;2023-09-30T15:18:51;5.73;;;3.93;;
10471;SDS011;5283;48.876;8.962;2023-09-30T15:21:18;6.33;;;3.60;;